sensor_id;sensor_type;location;lat;lon;timestamp;temperature;humidity
35491;DHT22;21605;52.068;20.806;2022-10-16T00:00:43;15.20;96.70
35491;DHT22;21605;52.068;20.806;2022-10-16T00:03:09;15.20;96.60
35491;DHT22;21605;52.068;20.806;2022-10-16T00:05:42;15.20;96.70
35491;DHT22;21605;52.068;20.806;2022-10-16T00:08:08;15.20;96.60
35491;DHT22;21605;52.068;20.806;2022-10-16T00:10:34;14.70;96.50
35491;DHT22;21605;52.068;20.806;2022-10-16T00:12:59;15.20;96.40
35491;DHT22;21605;52.068;20.806;2022-10-16T00:15:25;15.30;96.40
35491;DHT22;21605;52.068;20.806;2022-10-16T00:17:50;15.30;96.30
35491;DHT22;21605;52.068;20.806;2022-10-16T00:20:16;15.40;96.30
35491;DHT22;21605;52.068;20.806;2022-10-16T00:22:41;15.30;96.20
35491;DHT22;21605;52.068;20.806;2022-10-16T00:25:07;15.40;96.30
35491;DHT22;21605;52.068;20.806;2022-10-16T00:27:33;15.40;96.20
35491;DHT22;21605;52.068;20.806;2022-10-16T00:29:58;15.40;96.30
35491;DHT22;21605;52.068;20.806;2022-10-16T00:32:23;15.40;96.20
35491;DHT22;21605;52.068;20.806;2022-10-16T00:34:49;15.40;96.10
35491;DHT22;21605;52.068;20.806;2022-10-16T00:37:14;15.40;96.10
35491;DHT22;21605;52.068;20.806;2022-10-16T00:39:40;15.30;96.30
35491;DHT22;21605;52.068;20.806;2022-10-16T00:42:05;15.40;96.20
35491;DHT22;21605;52.068;20.806;2022-10-16T00:47:36;15.40;96.00
35491;DHT22;21605;52.068;20.806;2022-10-16T00:50:06;15.40;96.10
35491;DHT22;21605;52.068;20.806;2022-10-16T00:52:32;15.40;96.00
35491;DHT22;21605;52.068;20.806;2022-10-16T00:54:57;15.30;96.10
35491;DHT22;21605;52.068;20.806;2022-10-16T00:57:23;15.40;96.10
35491;DHT22;21605;52.068;20.806;2022-10-16T00:59:49;15.30;96.20
35491;DHT22;21605;52.068;20.806;2022-10-16T01:02:15;15.30;96.10
35491;DHT22;21605;52.068;20.806;2022-10-16T01:04:45;15.40;95.90
35491;DHT22;21605;52.068;20.806;2022-10-16T01:07:54;15.50;95.80
35491;DHT22;21605;52.068;20.806;2022-10-16T01:10:07;15.50;95.90
35491;DHT22;21605;52.068;20.806;2022-10-16T01:15:02;15.50;95.80
35491;DHT22;21605;52.068;20.806;2022-10-16T01:22:33;15.40;95.80
35491;DHT22;21605;52.068;20.806;2022-10-16T01:25:01;15.40;95.90
35491;DHT22;21605;52.068;20.806;2022-10-16T01:27:30;15.40;95.80
35491;DHT22;21605;52.068;20.806;2022-10-16T01:32:33;15.50;95.70
35491;DHT22;21605;52.068;20.806;2022-10-16T01:35:21;15.40;95.80
35491;DHT22;21605;52.068;20.806;2022-10-16T01:37:48;15.50;95.70
35491;DHT22;21605;52.068;20.806;2022-10-16T01:40:16;15.40;95.70
35491;DHT22;21605;52.068;20.806;2022-10-16T01:42:42;15.40;95.70
35491;DHT22;21605;52.068;20.806;2022-10-16T01:45:11;15.40;95.80
35491;DHT22;21605;52.068;20.806;2022-10-16T01:47:38;15.40;95.70
35491;DHT22;21605;52.068;20.806;2022-10-16T01:50:04;15.40;95.80
35491;DHT22;21605;52.068;20.806;2022-10-16T01:52:31;15.40;95.80
35491;DHT22;21605;52.068;20.806;2022-10-16T01:54:58;15.30;95.90
35491;DHT22;21605;52.068;20.806;2022-10-16T01:57:25;15.30;95.80
35491;DHT22;21605;52.068;20.806;2022-10-16T01:59:54;15.30;95.90
35491;DHT22;21605;52.068;20.806;2022-10-16T02:02:20;15.30;95.90
35491;DHT22;21605;52.068;20.806;2022-10-16T02:05:11;15.20;96.00
35491;DHT22;21605;52.068;20.806;2022-10-16T02:07:33;15.30;96.00
35491;DHT22;21605;52.068;20.806;2022-10-16T02:09:59;15.20;96.30
35491;DHT22;21605;52.068;20.806;2022-10-16T02:12:26;15.20;96.30
35491;DHT22;21605;52.068;20.806;2022-10-16T02:14:52;15.20;96.40
35491;DHT22;21605;52.068;20.806;2022-10-16T02:17:18;15.20;96.30
35491;DHT22;21605;52.068;20.806;2022-10-16T02:19:44;15.10;96.40
35491;DHT22;21605;52.068;20.806;2022-10-16T02:22:56;15.10;96.60
35491;DHT22;21605;52.068;20.806;2022-10-16T02:27:40;15.10;96.70
35491;DHT22;21605;52.068;20.806;2022-10-16T02:30:28;15.00;96.80
35491;DHT22;21605;52.068;20.806;2022-10-16T02:32:52;15.00;96.80
35491;DHT22;21605;52.068;20.806;2022-10-16T02:35:19;15.00;96.90
35491;DHT22;21605;52.068;20.806;2022-10-16T02:37:46;15.00;96.90
35491;DHT22;21605;52.068;20.806;2022-10-16T02:40:12;15.00;97.00
35491;DHT22;21605;52.068;20.806;2022-10-16T02:42:38;15.00;97.00
35491;DHT22;21605;52.068;20.806;2022-10-16T02:45:05;15.00;97.10
35491;DHT22;21605;52.068;20.806;2022-10-16T02:47:31;14.90;96.70
35491;DHT22;21605;52.068;20.806;2022-10-16T02:49:56;14.90;96.70
35491;DHT22;21605;52.068;20.806;2022-10-16T02:52:22;14.90;96.90
35491;DHT22;21605;52.068;20.806;2022-10-16T02:54:47;14.90;96.90
35491;DHT22;21605;52.068;20.806;2022-10-16T02:57:13;14.90;97.00
35491;DHT22;21605;52.068;20.806;2022-10-16T02:59:38;14.90;97.10
35491;DHT22;21605;52.068;20.806;2022-10-16T03:02:04;14.80;97.10
35491;DHT22;21605;52.068;20.806;2022-10-16T03:04:29;14.80;96.70
35491;DHT22;21605;52.068;20.806;2022-10-16T03:06:55;14.80;97.00
35491;DHT22;21605;52.068;20.806;2022-10-16T03:09:20;14.80;97.10
35491;DHT22;21605;52.068;20.806;2022-10-16T03:11:46;14.80;97.20
35491;DHT22;21605;52.068;20.806;2022-10-16T03:14:11;14.70;97.20
35491;DHT22;21605;52.068;20.806;2022-10-16T03:16:37;14.80;97.00
35491;DHT22;21605;52.068;20.806;2022-10-16T03:19:02;14.80;97.10
35491;DHT22;21605;52.068;20.806;2022-10-16T03:21:28;14.80;97.30
35491;DHT22;21605;52.068;20.806;2022-10-16T03:23:53;14.70;97.20
35491;DHT22;21605;52.068;20.806;2022-10-16T03:26:19;14.70;97.30
35491;DHT22;21605;52.068;20.806;2022-10-16T03:28:44;14.70;97.40
35491;DHT22;21605;52.068;20.806;2022-10-16T03:31:10;14.70;97.40
35491;DHT22;21605;52.068;20.806;2022-10-16T03:33:35;14.70;97.50
35491;DHT22;21605;52.068;20.806;2022-10-16T03:36:01;14.70;97.50
35491;DHT22;21605;52.068;20.806;2022-10-16T03:38:26;14.70;97.60
35491;DHT22;21605;52.068;20.806;2022-10-16T03:40:52;14.70;97.60
35491;DHT22;21605;52.068;20.806;2022-10-16T03:43:17;14.70;97.60
35491;DHT22;21605;52.068;20.806;2022-10-16T03:45:43;14.60;97.60
35491;DHT22;21605;52.068;20.806;2022-10-16T03:48:10;14.60;97.40
35491;DHT22;21605;52.068;20.806;2022-10-16T03:50:36;14.60;97.60
35491;DHT22;21605;52.068;20.806;2022-10-16T03:53:01;14.60;97.70
35491;DHT22;21605;52.068;20.806;2022-10-16T03:55:27;14.60;97.70
35491;DHT22;21605;52.068;20.806;2022-10-16T03:57:52;14.60;97.70
35491;DHT22;21605;52.068;20.806;2022-10-16T04:00:17;14.60;97.90
35491;DHT22;21605;52.068;20.806;2022-10-16T04:02:43;14.50;97.60
35491;DHT22;21605;52.068;20.806;2022-10-16T04:05:08;14.50;97.60
35491;DHT22;21605;52.068;20.806;2022-10-16T04:07:34;14.50;97.70
35491;DHT22;21605;52.068;20.806;2022-10-16T04:10:00;14.50;97.70
35491;DHT22;21605;52.068;20.806;2022-10-16T04:12:26;14.40;97.70
35491;DHT22;21605;52.068;20.806;2022-10-16T04:14:51;14.40;97.80
35491;DHT22;21605;52.068;20.806;2022-10-16T04:17:17;14.30;97.80
35491;DHT22;21605;52.068;20.806;2022-10-16T04:19:42;14.30;97.80
35491;DHT22;21605;52.068;20.806;2022-10-16T04:22:08;14.20;97.80
35491;DHT22;21605;52.068;20.806;2022-10-16T04:24:33;14.20;97.90
35491;DHT22;21605;52.068;20.806;2022-10-16T04:26:59;14.10;97.90
35491;DHT22;21605;52.068;20.806;2022-10-16T04:29:24;14.10;97.90
35491;DHT22;21605;52.068;20.806;2022-10-16T04:31:49;14.00;97.80
35491;DHT22;21605;52.068;20.806;2022-10-16T04:34:15;13.90;97.90
35491;DHT22;21605;52.068;20.806;2022-10-16T04:36:40;13.90;98.00
35491;DHT22;21605;52.068;20.806;2022-10-16T04:39:06;13.80;97.90
35491;DHT22;21605;52.068;20.806;2022-10-16T04:41:31;13.80;98.00
35491;DHT22;21605;52.068;20.806;2022-10-16T04:43:57;13.70;98.10
35491;DHT22;21605;52.068;20.806;2022-10-16T04:46:22;13.70;98.10
35491;DHT22;21605;52.068;20.806;2022-10-16T04:48:48;13.60;98.10
35491;DHT22;21605;52.068;20.806;2022-10-16T04:51:13;13.60;98.20
35491;DHT22;21605;52.068;20.806;2022-10-16T04:53:39;13.50;98.10
35491;DHT22;21605;52.068;20.806;2022-10-16T04:56:04;13.40;98.20
35491;DHT22;21605;52.068;20.806;2022-10-16T04:58:30;13.40;98.30
35491;DHT22;21605;52.068;20.806;2022-10-16T05:00:55;13.30;98.40
35491;DHT22;21605;52.068;20.806;2022-10-16T05:03:21;13.30;98.40
35491;DHT22;21605;52.068;20.806;2022-10-16T05:05:46;13.30;98.40
35491;DHT22;21605;52.068;20.806;2022-10-16T05:08:12;13.20;98.60
35491;DHT22;21605;52.068;20.806;2022-10-16T05:10:38;13.20;98.60
35491;DHT22;21605;52.068;20.806;2022-10-16T05:13:04;13.10;98.90
35491;DHT22;21605;52.068;20.806;2022-10-16T05:15:29;13.10;98.70
35491;DHT22;21605;52.068;20.806;2022-10-16T05:17:55;13.10;98.80
35491;DHT22;21605;52.068;20.806;2022-10-16T05:20:21;13.00;98.90
35491;DHT22;21605;52.068;20.806;2022-10-16T05:22:47;13.00;98.90
35491;DHT22;21605;52.068;20.806;2022-10-16T05:25:12;13.00;98.80
35491;DHT22;21605;52.068;20.806;2022-10-16T05:27:38;12.90;98.90
35491;DHT22;21605;52.068;20.806;2022-10-16T05:30:03;12.90;99.00
35491;DHT22;21605;52.068;20.806;2022-10-16T05:32:29;12.90;99.10
35491;DHT22;21605;52.068;20.806;2022-10-16T05:34:54;12.90;99.10
35491;DHT22;21605;52.068;20.806;2022-10-16T05:37:20;12.80;99.20
35491;DHT22;21605;52.068;20.806;2022-10-16T05:39:45;12.90;99.30
35491;DHT22;21605;52.068;20.806;2022-10-16T05:42:11;12.80;98.50
35491;DHT22;21605;52.068;20.806;2022-10-16T05:44:36;12.80;98.40
35491;DHT22;21605;52.068;20.806;2022-10-16T05:47:02;12.80;98.70
35491;DHT22;21605;52.068;20.806;2022-10-16T05:49:27;12.90;98.20
35491;DHT22;21605;52.068;20.806;2022-10-16T05:51:53;12.90;98.80
35491;DHT22;21605;52.068;20.806;2022-10-16T05:54:18;12.90;98.70
35491;DHT22;21605;52.068;20.806;2022-10-16T05:56:44;12.80;98.60
35491;DHT22;21605;52.068;20.806;2022-10-16T05:59:09;13.50;98.90
35491;DHT22;21605;52.068;20.806;2022-10-16T06:01:35;12.90;98.30
35491;DHT22;21605;52.068;20.806;2022-10-16T06:04:01;12.90;98.40
35491;DHT22;21605;52.068;20.806;2022-10-16T06:06:27;12.90;98.40
35491;DHT22;21605;52.068;20.806;2022-10-16T06:08:53;12.90;98.40
35491;DHT22;21605;52.068;20.806;2022-10-16T06:11:20;12.90;98.60
35491;DHT22;21605;52.068;20.806;2022-10-16T06:13:49;12.90;98.50
35491;DHT22;21605;52.068;20.806;2022-10-16T06:16:15;12.90;98.50
35491;DHT22;21605;52.068;20.806;2022-10-16T06:18:40;13.00;98.50
35491;DHT22;21605;52.068;20.806;2022-10-16T06:21:10;13.00;98.80
35491;DHT22;21605;52.068;20.806;2022-10-16T06:23:35;13.10;98.70
35491;DHT22;21605;52.068;20.806;2022-10-16T06:28:32;13.10;98.50
35491;DHT22;21605;52.068;20.806;2022-10-16T06:30:58;13.20;99.10
35491;DHT22;21605;52.068;20.806;2022-10-16T06:33:24;13.30;98.30
35491;DHT22;21605;52.068;20.806;2022-10-16T06:35:49;13.30;98.60
35491;DHT22;21605;52.068;20.806;2022-10-16T06:38:15;13.40;98.60
35491;DHT22;21605;52.068;20.806;2022-10-16T06:40:40;13.50;99.00
35491;DHT22;21605;52.068;20.806;2022-10-16T06:43:06;13.50;98.30
35491;DHT22;21605;52.068;20.806;2022-10-16T06:45:31;13.60;98.50
35491;DHT22;21605;52.068;20.806;2022-10-16T06:47:57;13.70;98.70
35491;DHT22;21605;52.068;20.806;2022-10-16T06:50:22;13.80;98.80
35491;DHT22;21605;52.068;20.806;2022-10-16T06:52:48;13.90;98.20
35491;DHT22;21605;52.068;20.806;2022-10-16T06:55:14;14.00;98.50
35491;DHT22;21605;52.068;20.806;2022-10-16T06:57:40;14.10;98.20
35491;DHT22;21605;52.068;20.806;2022-10-16T07:00:06;14.20;98.00
35491;DHT22;21605;52.068;20.806;2022-10-16T07:02:31;14.30;98.20
35491;DHT22;21605;52.068;20.806;2022-10-16T07:04:57;14.30;98.80
35491;DHT22;21605;52.068;20.806;2022-10-16T07:07:22;14.30;98.30
35491;DHT22;21605;52.068;20.806;2022-10-16T07:09:50;14.40;98.30
35491;DHT22;21605;52.068;20.806;2022-10-16T07:12:15;14.40;98.50
35491;DHT22;21605;52.068;20.806;2022-10-16T07:14:40;14.50;98.00
35491;DHT22;21605;52.068;20.806;2022-10-16T07:17:06;14.60;98.10
35491;DHT22;21605;52.068;20.806;2022-10-16T07:19:31;14.60;98.30
35491;DHT22;21605;52.068;20.806;2022-10-16T07:21:57;14.60;98.30
35491;DHT22;21605;52.068;20.806;2022-10-16T07:24:22;14.70;98.10
35491;DHT22;21605;52.068;20.806;2022-10-16T07:26:48;14.70;98.10
35491;DHT22;21605;52.068;20.806;2022-10-16T07:29:14;14.80;98.00
35491;DHT22;21605;52.068;20.806;2022-10-16T07:31:40;14.90;98.00
35491;DHT22;21605;52.068;20.806;2022-10-16T07:34:06;15.10;98.30
35491;DHT22;21605;52.068;20.806;2022-10-16T07:36:31;15.20;98.10
35491;DHT22;21605;52.068;20.806;2022-10-16T07:38:57;15.20;98.00
35491;DHT22;21605;52.068;20.806;2022-10-16T07:41:22;15.20;97.90
35491;DHT22;21605;52.068;20.806;2022-10-16T07:43:49;15.30;97.90
35491;DHT22;21605;52.068;20.806;2022-10-16T07:46:15;15.40;97.90
35491;DHT22;21605;52.068;20.806;2022-10-16T07:48:41;15.50;97.90
35491;DHT22;21605;52.068;20.806;2022-10-16T07:51:11;15.90;98.20
35491;DHT22;21605;52.068;20.806;2022-10-16T07:53:36;15.60;98.00
35491;DHT22;21605;52.068;20.806;2022-10-16T07:56:03;15.70;98.30
35491;DHT22;21605;52.068;20.806;2022-10-16T07:58:29;15.70;98.20
35491;DHT22;21605;52.068;20.806;2022-10-16T08:00:55;15.80;98.00
35491;DHT22;21605;52.068;20.806;2022-10-16T08:03:21;15.90;98.10
35491;DHT22;21605;52.068;20.806;2022-10-16T08:05:46;15.90;98.20
35491;DHT22;21605;52.068;20.806;2022-10-16T08:08:13;16.00;98.30
35491;DHT22;21605;52.068;20.806;2022-10-16T08:10:39;16.10;98.10
35491;DHT22;21605;52.068;20.806;2022-10-16T08:13:05;16.10;98.10
35491;DHT22;21605;52.068;20.806;2022-10-16T08:15:30;16.20;98.10
35491;DHT22;21605;52.068;20.806;2022-10-16T08:18:02;16.30;98.30
35491;DHT22;21605;52.068;20.806;2022-10-16T08:20:28;16.50;98.30
35491;DHT22;21605;52.068;20.806;2022-10-16T08:22:54;16.60;98.10
35491;DHT22;21605;52.068;20.806;2022-10-16T08:25:20;16.80;98.10
35491;DHT22;21605;52.068;20.806;2022-10-16T08:27:46;17.10;98.20
35491;DHT22;21605;52.068;20.806;2022-10-16T08:30:12;17.30;98.10
35491;DHT22;21605;52.068;20.806;2022-10-16T08:32:37;17.50;98.70
35491;DHT22;21605;52.068;20.806;2022-10-16T08:35:03;17.70;98.00
35491;DHT22;21605;52.068;20.806;2022-10-16T08:37:32;18.10;98.00
35491;DHT22;21605;52.068;20.806;2022-10-16T08:39:58;18.50;98.40
35491;DHT22;21605;52.068;20.806;2022-10-16T08:47:40;19.20;97.20
35491;DHT22;21605;52.068;20.806;2022-10-16T08:50:09;19.40;97.20
35491;DHT22;21605;52.068;20.806;2022-10-16T08:52:35;19.40;96.70
35491;DHT22;21605;52.068;20.806;2022-10-16T08:55:03;19.50;96.60
35491;DHT22;21605;52.068;20.806;2022-10-16T08:57:29;19.50;96.30
35491;DHT22;21605;52.068;20.806;2022-10-16T08:59:57;19.50;96.70
35491;DHT22;21605;52.068;20.806;2022-10-16T09:02:28;19.50;96.50
35491;DHT22;21605;52.068;20.806;2022-10-16T09:05:08;19.50;96.50
35491;DHT22;21605;52.068;20.806;2022-10-16T09:12:53;19.70;95.90
35491;DHT22;21605;52.068;20.806;2022-10-16T09:15:23;19.70;95.90
35491;DHT22;21605;52.068;20.806;2022-10-16T09:18:53;19.70;96.00
35491;DHT22;21605;52.068;20.806;2022-10-16T09:20:49;19.70;95.80
35491;DHT22;21605;52.068;20.806;2022-10-16T09:23:21;19.70;95.70
35491;DHT22;21605;52.068;20.806;2022-10-16T09:25:48;19.70;95.90
35491;DHT22;21605;52.068;20.806;2022-10-16T09:28:14;19.70;95.90
35491;DHT22;21605;52.068;20.806;2022-10-16T09:30:40;19.80;95.30
35491;DHT22;21605;52.068;20.806;2022-10-16T09:33:06;19.80;95.30
35491;DHT22;21605;52.068;20.806;2022-10-16T09:35:36;19.90;95.70
35491;DHT22;21605;52.068;20.806;2022-10-16T09:38:02;19.90;95.10
35491;DHT22;21605;52.068;20.806;2022-10-16T09:40:29;20.00;95.40
35491;DHT22;21605;52.068;20.806;2022-10-16T09:43:00;20.10;96.00
35491;DHT22;21605;52.068;20.806;2022-10-16T09:45:27;20.20;95.80
35491;DHT22;21605;52.068;20.806;2022-10-16T09:47:52;20.30;96.10
35491;DHT22;21605;52.068;20.806;2022-10-16T09:50:28;20.50;96.10
35491;DHT22;21605;52.068;20.806;2022-10-16T09:53:08;20.60;94.90
35491;DHT22;21605;52.068;20.806;2022-10-16T09:55:35;20.70;95.00
35491;DHT22;21605;52.068;20.806;2022-10-16T09:58:01;20.60;95.40
35491;DHT22;21605;52.068;20.806;2022-10-16T10:00:26;20.70;95.20
35491;DHT22;21605;52.068;20.806;2022-10-16T10:02:52;20.80;95.20
35491;DHT22;21605;52.068;20.806;2022-10-16T10:07:44;21.00;95.10
35491;DHT22;21605;52.068;20.806;2022-10-16T10:10:20;21.30;95.10
35491;DHT22;21605;52.068;20.806;2022-10-16T10:12:46;21.60;95.20
35491;DHT22;21605;52.068;20.806;2022-10-16T10:15:11;21.90;95.20
35491;DHT22;21605;52.068;20.806;2022-10-16T10:17:50;22.20;93.80
35491;DHT22;21605;52.068;20.806;2022-10-16T10:20:35;22.30;94.40
35491;DHT22;21605;52.068;20.806;2022-10-16T10:23:22;22.50;93.40
35491;DHT22;21605;52.068;20.806;2022-10-16T10:25:53;22.70;93.40
35491;DHT22;21605;52.068;20.806;2022-10-16T10:44:19;24.00;92.30
35491;DHT22;21605;52.068;20.806;2022-10-16T10:49:17;23.90;91.70
35491;DHT22;21605;52.068;20.806;2022-10-16T10:51:53;23.90;92.10
35491;DHT22;21605;52.068;20.806;2022-10-16T10:56:51;23.70;91.80
35491;DHT22;21605;52.068;20.806;2022-10-16T11:07:09;23.40;91.80
35491;DHT22;21605;52.068;20.806;2022-10-16T11:09:38;23.30;90.70
35491;DHT22;21605;52.068;20.806;2022-10-16T11:14:35;23.10;91.00
35491;DHT22;21605;52.068;20.806;2022-10-16T11:17:07;23.10;90.80
35491;DHT22;21605;52.068;20.806;2022-10-16T11:24:48;22.90;91.20
35491;DHT22;21605;52.068;20.806;2022-10-16T11:27:18;22.90;91.40
35491;DHT22;21605;52.068;20.806;2022-10-16T11:29:46;22.90;90.70
35491;DHT22;21605;52.068;20.806;2022-10-16T11:32:27;22.90;90.40
35491;DHT22;21605;52.068;20.806;2022-10-16T11:34:56;22.80;90.50
35491;DHT22;21605;52.068;20.806;2022-10-16T11:37:27;22.80;89.70
35491;DHT22;21605;52.068;20.806;2022-10-16T11:39:58;22.60;90.30
35491;DHT22;21605;52.068;20.806;2022-10-16T11:42:27;22.60;90.60
35491;DHT22;21605;52.068;20.806;2022-10-16T11:45:00;22.60;90.20
35491;DHT22;21605;52.068;20.806;2022-10-16T11:52:44;22.30;90.40
35491;DHT22;21605;52.068;20.806;2022-10-16T11:55:20;22.20;90.50
35491;DHT22;21605;52.068;20.806;2022-10-16T11:57:50;22.10;90.50
35491;DHT22;21605;52.068;20.806;2022-10-16T12:02:57;21.90;90.50
35491;DHT22;21605;52.068;20.806;2022-10-16T12:08:13;21.80;90.90
35491;DHT22;21605;52.068;20.806;2022-10-16T12:10:40;21.80;90.80
35491;DHT22;21605;52.068;20.806;2022-10-16T12:15:50;21.80;90.80
35491;DHT22;21605;52.068;20.806;2022-10-16T12:18:22;21.80;91.00
35491;DHT22;21605;52.068;20.806;2022-10-16T12:20:57;21.70;91.10
35491;DHT22;21605;52.068;20.806;2022-10-16T12:23:31;21.80;90.90
35491;DHT22;21605;52.068;20.806;2022-10-16T12:25:58;21.70;90.90
35491;DHT22;21605;52.068;20.806;2022-10-16T12:28:27;21.80;91.10
35491;DHT22;21605;52.068;20.806;2022-10-16T12:31:03;21.70;90.40
35491;DHT22;21605;52.068;20.806;2022-10-16T12:33:31;21.70;90.60
35491;DHT22;21605;52.068;20.806;2022-10-16T12:35:59;21.70;90.60
35491;DHT22;21605;52.068;20.806;2022-10-16T12:38:28;21.70;90.80
35491;DHT22;21605;52.068;20.806;2022-10-16T12:41:00;21.70;90.30
35491;DHT22;21605;52.068;20.806;2022-10-16T12:43:27;21.80;90.20
35491;DHT22;21605;52.068;20.806;2022-10-16T12:46:03;21.80;90.60
35491;DHT22;21605;52.068;20.806;2022-10-16T12:48:29;21.70;90.50
35491;DHT22;21605;52.068;20.806;2022-10-16T12:50:55;21.20;90.60
35491;DHT22;21605;52.068;20.806;2022-10-16T12:53:22;21.70;90.80
35491;DHT22;21605;52.068;20.806;2022-10-16T12:55:52;21.60;91.00
35491;DHT22;21605;52.068;20.806;2022-10-16T12:58:31;21.60;91.10
35491;DHT22;21605;52.068;20.806;2022-10-16T13:01:04;21.60;91.10
35491;DHT22;21605;52.068;20.806;2022-10-16T13:06:35;21.60;91.10
35491;DHT22;21605;52.068;20.806;2022-10-16T13:09:10;21.50;91.10
35491;DHT22;21605;52.068;20.806;2022-10-16T13:17:57;21.40;91.40
35491;DHT22;21605;52.068;20.806;2022-10-16T13:20:06;21.40;91.30
35491;DHT22;21605;52.068;20.806;2022-10-16T13:22:45;21.50;91.20
35491;DHT22;21605;52.068;20.806;2022-10-16T13:28:00;21.40;91.40
35491;DHT22;21605;52.068;20.806;2022-10-16T13:30:27;21.40;91.40
35491;DHT22;21605;52.068;20.806;2022-10-16T13:32:59;21.30;91.50
35491;DHT22;21605;52.068;20.806;2022-10-16T13:35:32;21.30;91.50
35491;DHT22;21605;52.068;20.806;2022-10-16T13:38:04;21.50;91.70
35491;DHT22;21605;52.068;20.806;2022-10-16T13:40:30;21.10;91.70
35491;DHT22;21605;52.068;20.806;2022-10-16T13:42:55;21.10;91.80
35491;DHT22;21605;52.068;20.806;2022-10-16T13:45:22;21.10;91.90
35491;DHT22;21605;52.068;20.806;2022-10-16T13:47:49;21.00;92.00
35491;DHT22;21605;52.068;20.806;2022-10-16T13:50:15;21.00;92.00
35491;DHT22;21605;52.068;20.806;2022-10-16T13:52:41;21.00;92.10
35491;DHT22;21605;52.068;20.806;2022-10-16T13:55:10;20.90;92.10
35491;DHT22;21605;52.068;20.806;2022-10-16T13:57:36;20.90;92.10
35491;DHT22;21605;52.068;20.806;2022-10-16T14:00:02;20.90;92.00
35491;DHT22;21605;52.068;20.806;2022-10-16T14:04:54;20.80;92.20
35491;DHT22;21605;52.068;20.806;2022-10-16T14:07:23;20.70;92.30
35491;DHT22;21605;52.068;20.806;2022-10-16T14:09:49;20.80;92.40
35491;DHT22;21605;52.068;20.806;2022-10-16T14:12:15;20.70;92.30
35491;DHT22;21605;52.068;20.806;2022-10-16T14:14:45;20.70;92.30
35491;DHT22;21605;52.068;20.806;2022-10-16T14:17:30;20.70;92.40
35491;DHT22;21605;52.068;20.806;2022-10-16T14:19:57;20.60;92.50
35491;DHT22;21605;52.068;20.806;2022-10-16T14:24:57;20.60;92.40
35491;DHT22;21605;52.068;20.806;2022-10-16T14:27:26;20.60;92.50
35491;DHT22;21605;52.068;20.806;2022-10-16T14:30:05;20.50;92.50
35491;DHT22;21605;52.068;20.806;2022-10-16T14:32:33;20.50;92.60
35491;DHT22;21605;52.068;20.806;2022-10-16T14:34:59;20.50;92.70
35491;DHT22;21605;52.068;20.806;2022-10-16T14:37:28;20.40;92.70
35491;DHT22;21605;52.068;20.806;2022-10-16T14:39:54;20.40;92.70
35491;DHT22;21605;52.068;20.806;2022-10-16T14:42:21;20.40;92.80
35491;DHT22;21605;52.068;20.806;2022-10-16T14:44:50;20.40;92.80
35491;DHT22;21605;52.068;20.806;2022-10-16T14:47:18;20.30;92.80
35491;DHT22;21605;52.068;20.806;2022-10-16T14:49:47;20.40;92.80
35491;DHT22;21605;52.068;20.806;2022-10-16T14:52:13;20.30;92.90
35491;DHT22;21605;52.068;20.806;2022-10-16T14:54:38;20.30;93.00
35491;DHT22;21605;52.068;20.806;2022-10-16T14:57:04;20.20;92.90
35491;DHT22;21605;52.068;20.806;2022-10-16T14:59:39;20.20;93.10
35491;DHT22;21605;52.068;20.806;2022-10-16T15:04:46;20.00;93.30
35491;DHT22;21605;52.068;20.806;2022-10-16T15:07:11;20.00;93.60
35491;DHT22;21605;52.068;20.806;2022-10-16T15:09:37;19.90;93.60
35491;DHT22;21605;52.068;20.806;2022-10-16T15:12:02;19.90;93.50
35491;DHT22;21605;52.068;20.806;2022-10-16T15:14:28;19.80;93.60
35491;DHT22;21605;52.068;20.806;2022-10-16T15:16:53;19.80;93.60
35491;DHT22;21605;52.068;20.806;2022-10-16T15:19:19;19.70;93.70
35491;DHT22;21605;52.068;20.806;2022-10-16T15:21:45;19.60;93.80
35491;DHT22;21605;52.068;20.806;2022-10-16T15:24:11;19.60;93.90
35491;DHT22;21605;52.068;20.806;2022-10-16T15:26:38;19.60;94.10
35491;DHT22;21605;52.068;20.806;2022-10-16T15:29:03;19.50;94.10
35491;DHT22;21605;52.068;20.806;2022-10-16T15:31:29;19.50;94.30
35491;DHT22;21605;52.068;20.806;2022-10-16T15:33:54;19.40;94.20
35491;DHT22;21605;52.068;20.806;2022-10-16T15:36:33;19.40;94.40
35491;DHT22;21605;52.068;20.806;2022-10-16T15:39:02;19.30;94.40
35491;DHT22;21605;52.068;20.806;2022-10-16T15:41:28;19.30;94.50
35491;DHT22;21605;52.068;20.806;2022-10-16T15:43:53;19.30;94.60
35491;DHT22;21605;52.068;20.806;2022-10-16T15:46:19;19.20;94.60
35491;DHT22;21605;52.068;20.806;2022-10-16T15:48:45;19.20;94.60
35491;DHT22;21605;52.068;20.806;2022-10-16T15:51:11;19.10;94.70
35491;DHT22;21605;52.068;20.806;2022-10-16T15:53:37;19.10;94.80
35491;DHT22;21605;52.068;20.806;2022-10-16T15:56:03;19.10;94.70
35491;DHT22;21605;52.068;20.806;2022-10-16T15:58:29;19.00;94.90
35491;DHT22;21605;52.068;20.806;2022-10-16T16:00:58;19.00;94.90
35491;DHT22;21605;52.068;20.806;2022-10-16T16:03:26;18.90;94.90
35491;DHT22;21605;52.068;20.806;2022-10-16T16:05:52;18.90;95.10
35491;DHT22;21605;52.068;20.806;2022-10-16T16:08:17;18.80;95.00
35491;DHT22;21605;52.068;20.806;2022-10-16T16:10:43;18.80;95.10
35491;DHT22;21605;52.068;20.806;2022-10-16T16:13:08;18.70;95.20
35491;DHT22;21605;52.068;20.806;2022-10-16T16:15:34;18.70;95.20
35491;DHT22;21605;52.068;20.806;2022-10-16T16:17:59;18.70;95.30
35491;DHT22;21605;52.068;20.806;2022-10-16T16:20:27;18.70;95.40
35491;DHT22;21605;52.068;20.806;2022-10-16T16:22:53;18.60;95.50
35491;DHT22;21605;52.068;20.806;2022-10-16T16:25:19;18.60;95.50
35491;DHT22;21605;52.068;20.806;2022-10-16T16:27:44;18.50;95.50
35491;DHT22;21605;52.068;20.806;2022-10-16T16:30:10;18.50;95.50
35491;DHT22;21605;52.068;20.806;2022-10-16T16:32:36;18.40;95.60
35491;DHT22;21605;52.068;20.806;2022-10-16T16:35:02;18.40;95.60
35491;DHT22;21605;52.068;20.806;2022-10-16T16:37:28;18.30;95.60
35491;DHT22;21605;52.068;20.806;2022-10-16T16:39:54;18.30;95.70
35491;DHT22;21605;52.068;20.806;2022-10-16T16:42:20;18.20;95.80
35491;DHT22;21605;52.068;20.806;2022-10-16T16:44:47;18.20;95.90
35491;DHT22;21605;52.068;20.806;2022-10-16T16:47:12;18.10;95.90
35491;DHT22;21605;52.068;20.806;2022-10-16T16:49:38;18.10;95.90
35491;DHT22;21605;52.068;20.806;2022-10-16T16:52:05;18.00;96.00
35491;DHT22;21605;52.068;20.806;2022-10-16T16:54:31;18.00;96.10
35491;DHT22;21605;52.068;20.806;2022-10-16T16:56:56;17.90;96.10